sensor_id;sensor_type;location;lat;lon;timestamp;pressure;altitude;pressure_sealevel;temperature;humidity
13348;BME280;6743;49.934;9.138;2023-02-21T00:00:32;100950.66;;;6.97;100.00
13348;BME280;6743;49.934;9.138;2023-02-21T00:03:16;100948.50;;;6.91;100.00
13348;BME280;6743;49.934;9.138;2023-02-21T00:06:00;100950.44;;;6.89;100.00
13348;BME280;6743;49.934;9.138;2023-02-21T00:08:45;100949.81;;;6.85;100.00
13348;BME280;6743;49.934;9.138;2023-02-21T00:11:30;100947.44;;;6.82;100.00
13348;BME280;6743;49.934;9.138;2023-02-21T00:14:14;100936.56;;;6.76;100.00
13348;BME280;6743;49.934;9.138;2023-02-21T00:16:58;100960.53;;;6.72;100.00
13348;BME280;6743;49.934;9.138;2023-02-21T00:19:43;100948.44;;;6.59;100.00
13348;BME280;6743;49.934;9.138;2023-02-21T00:22:27;100949.06;;;6.62;100.00
13348;BME280;6743;49.934;9.138;2023-02-21T00:25:12;100948.09;;;6.63;100.00
13348;BME280;6743;49.934;9.138;2023-02-21T00:27:59;100944.72;;;6.61;100.00
13348;BME280;6743;49.934;9.138;2023-02-21T00:30:43;100935.28;;;6.48;100.00
13348;BME280;6743;49.934;9.138;2023-02-21T00:33:27;100950.84;;;6.51;100.00
13348;BME280;6743;49.934;9.138;2023-02-21T00:36:15;100952.06;;;6.47;100.00
13348;BME280;6743;49.934;9.138;2023-02-21T00:38:59;100947.28;;;6.41;100.00
13348;BME280;6743;49.934;9.138;2023-02-21T00:41:44;100919.63;;;6.13;100.00
13348;BME280;6743;49.934;9.138;2023-02-21T00:44:29;100946.44;;;6.18;100.00
13348;BME280;6743;49.934;9.138;2023-02-21T00:47:13;100943.44;;;6.11;100.00
13348;BME280;6743;49.934;9.138;2023-02-21T00:49:58;100941.41;;;6.04;100.00
13348;BME280;6743;49.934;9.138;2023-02-21T00:52:42;100932.66;;;5.92;100.00
13348;BME280;6743;49.934;9.138;2023-02-21T00:55:26;100948.47;;;5.92;100.00
13348;BME280;6743;49.934;9.138;2023-02-21T00:58:11;100948.28;;;5.82;100.00
13348;BME280;6743;49.934;9.138;2023-02-21T01:00:56;100945.28;;;5.76;100.00
13348;BME280;6743;49.934;9.138;2023-02-21T01:03:40;100942.16;;;5.71;100.00
13348;BME280;6743;49.934;9.138;2023-02-21T01:06:25;100938.81;;;5.69;100.00
13348;BME280;6743;49.934;9.138;2023-02-21T01:09:09;100943.38;;;5.67;100.00
13348;BME280;6743;49.934;9.138;2023-02-21T01:11:53;100944.66;;;5.61;100.00
13348;BME280;6743;49.934;9.138;2023-02-21T01:14:38;100946.06;;;5.54;100.00
13348;BME280;6743;49.934;9.138;2023-02-21T01:17:23;100936.75;;;5.50;100.00
13348;BME280;6743;49.934;9.138;2023-02-21T01:20:07;100923.31;;;5.42;100.00
13348;BME280;6743;49.934;9.138;2023-02-21T01:22:52;100930.38;;;5.41;100.00
13348;BME280;6743;49.934;9.138;2023-02-21T01:25:36;100921.63;;;5.30;100.00
13348;BME280;6743;49.934;9.138;2023-02-21T01:28:20;100933.34;;;5.37;100.00
13348;BME280;6743;49.934;9.138;2023-02-21T01:31:04;100927.81;;;5.29;100.00
13348;BME280;6743;49.934;9.138;2023-02-21T01:33:49;100930.47;;;5.29;100.00
13348;BME280;6743;49.934;9.138;2023-02-21T01:36:33;100929.03;;;5.25;100.00
13348;BME280;6743;49.934;9.138;2023-02-21T01:39:18;100932.91;;;5.19;100.00
13348;BME280;6743;49.934;9.138;2023-02-21T01:42:02;100942.00;;;5.15;100.00
13348;BME280;6743;49.934;9.138;2023-02-21T01:44:47;100938.16;;;5.08;100.00
13348;BME280;6743;49.934;9.138;2023-02-21T01:47:32;100940.88;;;5.06;100.00
13348;BME280;6743;49.934;9.138;2023-02-21T01:50:20;100933.34;;;5.02;100.00
13348;BME280;6743;49.934;9.138;2023-02-21T01:53:07;100913.06;;;4.91;100.00
13348;BME280;6743;49.934;9.138;2023-02-21T01:55:54;100925.56;;;5.00;100.00
13348;BME280;6743;49.934;9.138;2023-02-21T01:58:39;100927.25;;;5.01;100.00
13348;BME280;6743;49.934;9.138;2023-02-21T02:01:30;100927.12;;;5.03;100.00
13348;BME280;6743;49.934;9.138;2023-02-21T02:04:16;100924.41;;;5.04;100.00
13348;BME280;6743;49.934;9.138;2023-02-21T02:07:01;100931.31;;;5.05;100.00
13348;BME280;6743;49.934;9.138;2023-02-21T02:09:46;100927.53;;;5.09;100.00
13348;BME280;6743;49.934;9.138;2023-02-21T02:12:49;100923.00;;;5.11;100.00
13348;BME280;6743;49.934;9.138;2023-02-21T02:15:27;100920.22;;;5.13;100.00
13348;BME280;6743;49.934;9.138;2023-02-21T02:18:16;100909.72;;;5.13;100.00
13348;BME280;6743;49.934;9.138;2023-02-21T02:21:01;100912.97;;;5.17;100.00
13348;BME280;6743;49.934;9.138;2023-02-21T02:29:47;100900.75;;;5.15;100.00
13348;BME280;6743;49.934;9.138;2023-02-21T02:32:37;100907.06;;;5.13;100.00
13348;BME280;6743;49.934;9.138;2023-02-21T02:35:08;100891.53;;;5.10;100.00
13348;BME280;6743;49.934;9.138;2023-02-21T02:37:46;100904.06;;;5.06;100.00
13348;BME280;6743;49.934;9.138;2023-02-21T02:40:24;100903.38;;;5.04;100.00
13348;BME280;6743;49.934;9.138;2023-02-21T02:43:01;100899.25;;;5.00;100.00
13348;BME280;6743;49.934;9.138;2023-02-21T02:45:32;100892.69;;;4.95;100.00
13348;BME280;6743;49.934;9.138;2023-02-21T02:48:02;100899.72;;;4.94;100.00
13348;BME280;6743;49.934;9.138;2023-02-21T02:50:36;100892.88;;;4.92;100.00
13348;BME280;6743;49.934;9.138;2023-02-21T02:53:06;100894.91;;;4.88;100.00
13348;BME280;6743;49.934;9.138;2023-02-21T02:55:38;100886.53;;;4.83;100.00
13348;BME280;6743;49.934;9.138;2023-02-21T02:58:06;100886.53;;;4.83;100.00
13348;BME280;6743;49.934;9.138;2023-02-21T03:00:36;100889.38;;;4.80;100.00
13348;BME280;6743;49.934;9.138;2023-02-21T03:03:17;100886.84;;;4.79;100.00
13348;BME280;6743;49.934;9.138;2023-02-21T03:06:02;100894.75;;;4.79;100.00
13348;BME280;6743;49.934;9.138;2023-02-21T03:08:40;100893.31;;;4.74;100.00
13348;BME280;6743;49.934;9.138;2023-02-21T03:11:14;100893.41;;;4.73;100.00
13348;BME280;6743;49.934;9.138;2023-02-21T03:13:44;100891.81;;;4.70;100.00
13348;BME280;6743;49.934;9.138;2023-02-21T03:16:19;100899.84;;;4.69;100.00
13348;BME280;6743;49.934;9.138;2023-02-21T03:18:51;100898.06;;;4.69;100.00
13348;BME280;6743;49.934;9.138;2023-02-21T03:21:21;100891.81;;;4.70;100.00
13348;BME280;6743;49.934;9.138;2023-02-21T03:23:51;100895.53;;;4.68;100.00
13348;BME280;6743;49.934;9.138;2023-02-21T03:26:19;100906.88;;;4.68;100.00
13348;BME280;6743;49.934;9.138;2023-02-21T03:28:46;100901.00;;;4.65;100.00
13348;BME280;6743;49.934;9.138;2023-02-21T03:31:15;100905.31;;;4.66;100.00
13348;BME280;6743;49.934;9.138;2023-02-21T03:33:42;100886.91;;;4.66;100.00
13348;BME280;6743;49.934;9.138;2023-02-21T03:36:09;100907.94;;;4.66;100.00
13348;BME280;6743;49.934;9.138;2023-02-21T03:38:36;100901.94;;;4.64;100.00
13348;BME280;6743;49.934;9.138;2023-02-21T03:41:03;100897.28;;;4.56;100.00
13348;BME280;6743;49.934;9.138;2023-02-21T03:43:31;100899.47;;;4.62;100.00
13348;BME280;6743;49.934;9.138;2023-02-21T03:45:57;100910.19;;;4.59;100.00
13348;BME280;6743;49.934;9.138;2023-02-21T03:48:23;100902.63;;;4.55;100.00
13348;BME280;6743;49.934;9.138;2023-02-21T03:50:49;100907.78;;;4.56;100.00
13348;BME280;6743;49.934;9.138;2023-02-21T03:53:15;100906.81;;;4.57;100.00
13348;BME280;6743;49.934;9.138;2023-02-21T03:55:42;100906.94;;;4.56;100.00
13348;BME280;6743;49.934;9.138;2023-02-21T03:58:08;100902.75;;;4.53;100.00
13348;BME280;6743;49.934;9.138;2023-02-21T04:00:34;100901.78;;;4.54;100.00
13348;BME280;6743;49.934;9.138;2023-02-21T04:02:59;100892.13;;;4.55;100.00
13348;BME280;6743;49.934;9.138;2023-02-21T04:05:25;100892.00;;;4.56;100.00
13348;BME280;6743;49.934;9.138;2023-02-21T04:07:51;100891.88;;;4.58;100.00
13348;BME280;6743;49.934;9.138;2023-02-21T04:10:17;100887.97;;;4.63;100.00
13348;BME280;6743;49.934;9.138;2023-02-21T04:12:44;100889.53;;;4.66;100.00
13348;BME280;6743;49.934;9.138;2023-02-21T04:15:10;100885.03;;;4.68;100.00
13348;BME280;6743;49.934;9.138;2023-02-21T04:17:36;100888.37;;;4.70;100.00
13348;BME280;6743;49.934;9.138;2023-02-21T04:20:03;100884.78;;;4.71;100.00
13348;BME280;6743;49.934;9.138;2023-02-21T04:22:29;100885.53;;;4.73;100.00
13348;BME280;6743;49.934;9.138;2023-02-21T04:24:55;100883.72;;;4.73;100.00
13348;BME280;6743;49.934;9.138;2023-02-21T04:27:21;100892.47;;;4.74;100.00
13348;BME280;6743;49.934;9.138;2023-02-21T04:29:48;100905.69;;;4.72;100.00
13348;BME280;6743;49.934;9.138;2023-02-21T04:32:14;100902.13;;;4.73;100.00
13348;BME280;6743;49.934;9.138;2023-02-21T04:34:40;100894.03;;;4.77;100.00
13348;BME280;6743;49.934;9.138;2023-02-21T04:37:06;100893.06;;;4.78;100.00
13348;BME280;6743;49.934;9.138;2023-02-21T04:39:32;100894.75;;;4.79;100.00
13348;BME280;6743;49.934;9.138;2023-02-21T04:41:58;100888.44;;;4.81;100.00
13348;BME280;6743;49.934;9.138;2023-02-21T04:44:24;100894.44;;;4.83;100.00
13348;BME280;6743;49.934;9.138;2023-02-21T04:46:50;100875.94;;;4.72;100.00
13348;BME280;6743;49.934;9.138;2023-02-21T04:49:16;100894.19;;;4.86;100.00
13348;BME280;6743;49.934;9.138;2023-02-21T04:51:43;100897.44;;;4.90;100.00
13348;BME280;6743;49.934;9.138;2023-02-21T04:54:09;100894.56;;;4.93;100.00
13348;BME280;6743;49.934;9.138;2023-02-21T04:56:35;100889.94;;;4.96;100.00
13348;BME280;6743;49.934;9.138;2023-02-21T04:59:02;100879.91;;;5.01;100.00
13348;BME280;6743;49.934;9.138;2023-02-21T05:01:29;100881.47;;;5.04;100.00
13348;BME280;6743;49.934;9.138;2023-02-21T05:03:56;100883.03;;;5.06;100.00
13348;BME280;6743;49.934;9.138;2023-02-21T05:06:24;100883.75;;;5.08;100.00
13348;BME280;6743;49.934;9.138;2023-02-21T05:08:50;100861.59;;;5.00;100.00
13348;BME280;6743;49.934;9.138;2023-02-21T05:11:18;100879.94;;;5.12;100.00
13348;BME280;6743;49.934;9.138;2023-02-21T05:13:44;100873.84;;;5.12;100.00
13348;BME280;6743;49.934;9.138;2023-02-21T05:16:10;100884.13;;;5.15;100.00
13348;BME280;6743;49.934;9.138;2023-02-21T05:18:37;100879.72;;;5.15;100.00
13348;BME280;6743;49.934;9.138;2023-02-21T05:21:04;100865.62;;;5.17;100.00
13348;BME280;6743;49.934;9.138;2023-02-21T05:23:31;100868.16;;;5.18;100.00
13348;BME280;6743;49.934;9.138;2023-02-21T05:26:02;100861.19;;;5.17;100.00
13348;BME280;6743;49.934;9.138;2023-02-21T05:28:28;100858.47;;;5.19;100.00
13348;BME280;6743;49.934;9.138;2023-02-21T05:30:55;100855.69;;;5.20;100.00
13348;BME280;6743;49.934;9.138;2023-02-21T05:33:21;100847.09;;;5.18;100.00
13348;BME280;6743;49.934;9.138;2023-02-21T05:35:47;100856.78;;;5.18;100.00
13348;BME280;6743;49.934;9.138;2023-02-21T05:38:14;100835.94;;;5.03;100.00
13348;BME280;6743;49.934;9.138;2023-02-21T05:40:40;100857.84;;;5.15;100.00
13348;BME280;6743;49.934;9.138;2023-02-21T05:43:06;100848.28;;;5.14;100.00
13348;BME280;6743;49.934;9.138;2023-02-21T05:45:32;100847.69;;;5.10;100.00
13348;BME280;6743;49.934;9.138;2023-02-21T05:47:58;100853.03;;;5.09;100.00
13348;BME280;6743;49.934;9.138;2023-02-21T05:50:26;100847.88;;;5.07;100.00
13348;BME280;6743;49.934;9.138;2023-02-21T05:52:52;100852.56;;;5.04;100.00
13348;BME280;6743;49.934;9.138;2023-02-21T05:55:19;100855.28;;;5.02;100.00
13348;BME280;6743;49.934;9.138;2023-02-21T05:57:45;100852.03;;;4.99;100.00
13348;BME280;6743;49.934;9.138;2023-02-21T06:00:15;100854.06;;;4.95;100.00
13348;BME280;6743;49.934;9.138;2023-02-21T06:02:41;100847.09;;;4.83;100.00
13348;BME280;6743;49.934;9.138;2023-02-21T06:05:07;100839.69;;;4.77;100.00
13348;BME280;6743;49.934;9.138;2023-02-21T06:07:33;100848.06;;;4.82;100.00
13348;BME280;6743;49.934;9.138;2023-02-21T06:09:59;100848.16;;;4.81;100.00
13348;BME280;6743;49.934;9.138;2023-02-21T06:12:25;100854.72;;;4.75;100.00
13348;BME280;6743;49.934;9.138;2023-02-21T06:14:51;100850.50;;;4.72;100.00
13348;BME280;6743;49.934;9.138;2023-02-21T06:17:17;100859.47;;;4.70;100.00
13348;BME280;6743;49.934;9.138;2023-02-21T06:19:43;100851.81;;;4.67;100.00
13348;BME280;6743;49.934;9.138;2023-02-21T06:22:09;100844.88;;;4.66;100.00
13348;BME280;6743;49.934;9.138;2023-02-21T06:24:35;100847.72;;;4.63;100.00
13348;BME280;6743;49.934;9.138;2023-02-21T06:27:01;100847.84;;;4.61;100.00
13348;BME280;6743;49.934;9.138;2023-02-21T06:29:28;100843.34;;;4.51;100.00
13348;BME280;6743;49.934;9.138;2023-02-21T06:31:55;100855.34;;;4.55;100.00
13348;BME280;6743;49.934;9.138;2023-02-21T06:34:22;100856.28;;;4.54;100.00
13348;BME280;6743;49.934;9.138;2023-02-21T06:36:50;100859.00;;;4.52;100.00
13348;BME280;6743;49.934;9.138;2023-02-21T06:39:16;100834.78;;;4.36;100.00
13348;BME280;6743;49.934;9.138;2023-02-21T06:41:42;100860.78;;;4.52;100.00
13348;BME280;6743;49.934;9.138;2023-02-21T06:44:08;100867.13;;;4.49;100.00
13348;BME280;6743;49.934;9.138;2023-02-21T06:46:35;100870.56;;;4.50;100.00
13348;BME280;6743;49.934;9.138;2023-02-21T06:49:02;100874.78;;;4.52;100.00
13348;BME280;6743;49.934;9.138;2023-02-21T06:51:33;100875.41;;;4.56;100.00
13348;BME280;6743;49.934;9.138;2023-02-21T06:53:59;100876.12;;;4.58;100.00
13348;BME280;6743;49.934;9.138;2023-02-21T06:56:25;100869.81;;;4.60;100.00
13348;BME280;6743;49.934;9.138;2023-02-21T06:58:51;100872.19;;;4.63;100.00
13348;BME280;6743;49.934;9.138;2023-02-21T07:01:18;100877.25;;;4.66;100.00
13348;BME280;6743;49.934;9.138;2023-02-21T07:03:46;100872.00;;;4.66;100.00
13348;BME280;6743;49.934;9.138;2023-02-21T07:06:12;100879.31;;;4.74;100.00
13348;BME280;6743;49.934;9.138;2023-02-21T07:08:38;100886.00;;;4.78;100.00
13348;BME280;6743;49.934;9.138;2023-02-21T07:11:04;100883.28;;;4.80;100.00
13348;BME280;6743;49.934;9.138;2023-02-21T07:13:31;100889.03;;;4.85;100.00
13348;BME280;6743;49.934;9.138;2023-02-21T07:15:57;100881.66;;;4.90;100.00
13348;BME280;6743;49.934;9.138;2023-02-21T07:18:23;100889.19;;;4.94;100.00
13348;BME280;6743;49.934;9.138;2023-02-21T07:20:51;100881.53;;;4.91;100.00
13348;BME280;6743;49.934;9.138;2023-02-21T07:23:17;100885.06;;;5.03;100.00
13348;BME280;6743;49.934;9.138;2023-02-21T07:25:43;100887.34;;;5.07;100.00
13348;BME280;6743;49.934;9.138;2023-02-21T07:28:12;100871.06;;;5.02;100.00
13348;BME280;6743;49.934;9.138;2023-02-21T07:30:39;100878.28;;;5.11;100.00
13348;BME280;6743;49.934;9.138;2023-02-21T07:33:05;100891.69;;;5.20;100.00
13348;BME280;6743;49.934;9.138;2023-02-21T07:35:31;100888.81;;;5.23;100.00
13348;BME280;6743;49.934;9.138;2023-02-21T07:37:58;100886.69;;;5.28;100.00
13348;BME280;6743;49.934;9.138;2023-02-21T07:40:24;100881.19;;;5.31;100.00
13348;BME280;6743;49.934;9.138;2023-02-21T07:42:50;100898.41;;;5.35;100.00
13348;BME280;6743;49.934;9.138;2023-02-21T07:45:16;100884.22;;;5.37;100.00
13348;BME280;6743;49.934;9.138;2023-02-21T07:47:43;100890.06;;;5.41;100.00
13348;BME280;6743;49.934;9.138;2023-02-21T07:50:10;100884.56;;;5.44;100.00
13348;BME280;6743;49.934;9.138;2023-02-21T07:52:36;100881.59;;;5.48;100.00
13348;BME280;6743;49.934;9.138;2023-02-21T07:55:03;100876.94;;;5.52;100.00
13348;BME280;6743;49.934;9.138;2023-02-21T07:57:29;100876.69;;;5.55;100.00
13348;BME280;6743;49.934;9.138;2023-02-21T07:59:55;100880.78;;;5.59;100.00
13348;BME280;6743;49.934;9.138;2023-02-21T08:02:21;100876.00;;;5.64;100.00
13348;BME280;6743;49.934;9.138;2023-02-21T08:04:49;100874.69;;;5.70;100.00
13348;BME280;6743;49.934;9.138;2023-02-21T08:07:15;100872.03;;;5.70;100.00
13348;BME280;6743;49.934;9.138;2023-02-21T08:09:41;100878.28;;;5.80;100.00
13348;BME280;6743;49.934;9.138;2023-02-21T08:12:08;100875.41;;;5.83;100.00
13348;BME280;6743;49.934;9.138;2023-02-21T08:14:34;100881.16;;;5.88;100.00
13348;BME280;6743;49.934;9.138;2023-02-21T08:17:03;100884.31;;;5.93;100.00
13348;BME280;6743;49.934;9.138;2023-02-21T08:19:33;100877.09;;;5.95;100.00
13348;BME280;6743;49.934;9.138;2023-02-21T08:21:59;100865.59;;;5.85;100.00
13348;BME280;6743;49.934;9.138;2023-02-21T08:24:25;100878.19;;;6.04;100.00
13348;BME280;6743;49.934;9.138;2023-02-21T08:26:50;100883.22;;;6.07;100.00
13348;BME280;6743;49.934;9.138;2023-02-21T08:29:17;100880.22;;;6.11;100.00
13348;BME280;6743;49.934;9.138;2023-02-21T08:34:46;100877.09;;;6.17;100.00
13348;BME280;6743;49.934;9.138;2023-02-21T08:37:20;100877.56;;;6.22;100.00
13348;BME280;6743;49.934;9.138;2023-02-21T08:39:51;100867.16;;;6.21;100.00
13348;BME280;6743;49.934;9.138;2023-02-21T08:42:18;100865.47;;;6.31;100.00
13348;BME280;6743;49.934;9.138;2023-02-21T08:44:45;100877.31;;;6.37;100.00
13348;BME280;6743;49.934;9.138;2023-02-21T08:47:15;100878.63;;;6.42;100.00
13348;BME280;6743;49.934;9.138;2023-02-21T08:49:43;100862.09;;;6.40;100.00
13348;BME280;6743;49.934;9.138;2023-02-21T08:52:09;100877.87;;;6.51;100.00
13348;BME280;6743;49.934;9.138;2023-02-21T08:54:35;100871.41;;;6.55;100.00
13348;BME280;6743;49.934;9.138;2023-02-21T08:57:01;100876.19;;;6.61;100.00
13348;BME280;6743;49.934;9.138;2023-02-21T08:59:27;100870.41;;;6.67;100.00
13348;BME280;6743;49.934;9.138;2023-02-21T09:01:58;100872.53;;;6.73;100.00
13348;BME280;6743;49.934;9.138;2023-02-21T09:04:24;100851.72;;;6.70;100.00
13348;BME280;6743;49.934;9.138;2023-02-21T09:06:52;100873.22;;;6.87;100.00
13348;BME280;6743;49.934;9.138;2023-02-21T09:09:18;100879.66;;;6.94;100.00
13348;BME280;6743;49.934;9.138;2023-02-21T09:11:45;100873.75;;;7.01;100.00
13348;BME280;6743;49.934;9.138;2023-02-21T09:14:12;100877.56;;;7.08;100.00
13348;BME280;6743;49.934;9.138;2023-02-21T09:16:39;100878.59;;;7.17;100.00
13348;BME280;6743;49.934;9.138;2023-02-21T09:19:05;100857.50;;;7.17;100.00
13348;BME280;6743;49.934;9.138;2023-02-21T09:21:32;100877.06;;;7.35;100.00
13348;BME280;6743;49.934;9.138;2023-02-21T09:23:58;100876.28;;;7.44;100.00
13348;BME280;6743;49.934;9.138;2023-02-21T09:26:24;100880.94;;;7.52;100.00
13348;BME280;6743;49.934;9.138;2023-02-21T09:28:50;100881.13;;;7.60;100.00
13348;BME280;6743;49.934;9.138;2023-02-21T09:31:16;100875.44;;;7.65;100.00
13348;BME280;6743;49.934;9.138;2023-02-21T09:33:43;100879.22;;;7.72;100.00
13348;BME280;6743;49.934;9.138;2023-02-21T09:36:10;100877.97;;;7.76;100.00
13348;BME280;6743;49.934;9.138;2023-02-21T09:38:37;100880.81;;;7.84;100.00
13348;BME280;6743;49.934;9.138;2023-02-21T09:41:07;100883.88;;;7.89;100.00
13348;BME280;6743;49.934;9.138;2023-02-21T09:43:35;100885.19;;;7.95;100.00
13348;BME280;6743;49.934;9.138;2023-02-21T09:46:05;100878.53;;;8.00;100.00
13348;BME280;6743;49.934;9.138;2023-02-21T09:48:34;100874.63;;;8.04;100.00
13348;BME280;6743;49.934;9.138;2023-02-21T09:51:02;100876.75;;;8.10;100.00
13348;BME280;6743;49.934;9.138;2023-02-21T09:53:32;100874.41;;;8.17;100.00
13348;BME280;6743;49.934;9.138;2023-02-21T09:56:03;100873.06;;;8.22;100.00
13348;BME280;6743;49.934;9.138;2023-02-21T09:58:30;100855.91;;;8.17;100.00
13348;BME280;6743;49.934;9.138;2023-02-21T10:00:57;100867.06;;;8.30;100.00
13348;BME280;6743;49.934;9.138;2023-02-21T10:03:39;100872.84;;;8.35;100.00
13348;BME280;6743;49.934;9.138;2023-02-21T10:06:15;100882.03;;;8.41;100.00
13348;BME280;6743;49.934;9.138;2023-02-21T10:08:49;100877.03;;;8.47;100.00
13348;BME280;6743;49.934;9.138;2023-02-21T10:11:35;100877.44;;;8.52;100.00
13348;BME280;6743;49.934;9.138;2023-02-21T10:14:15;100881.34;;;8.58;100.00
13348;BME280;6743;49.934;9.138;2023-02-21T10:16:49;100864.94;;;8.54;100.00
13348;BME280;6743;49.934;9.138;2023-02-21T10:19:21;100882.75;;;8.72;100.00
13348;BME280;6743;49.934;9.138;2023-02-21T10:21:52;100883.88;;;8.79;100.00
13348;BME280;6743;49.934;9.138;2023-02-21T10:24:25;100878.06;;;8.85;100.00
13348;BME280;6743;49.934;9.138;2023-02-21T10:26:59;100875.69;;;8.91;100.00
13348;BME280;6743;49.934;9.138;2023-02-21T10:29:36;100866.22;;;8.98;100.00
13348;BME280;6743;49.934;9.138;2023-02-21T10:32:07;100874.44;;;9.05;100.00
13348;BME280;6743;49.934;9.138;2023-02-21T10:34:33;100874.84;;;9.10;100.00
13348;BME280;6743;49.934;9.138;2023-02-21T10:37:05;100874.28;;;9.16;100.00
13348;BME280;6743;49.934;9.138;2023-02-21T10:39:42;100871.06;;;9.22;100.00
13348;BME280;6743;49.934;9.138;2023-02-21T10:42:12;100874.97;;;9.28;100.00
13348;BME280;6743;49.934;9.138;2023-02-21T10:44:39;100872.75;;;9.33;100.00
13348;BME280;6743;49.934;9.138;2023-02-21T10:47:12;100875.81;;;9.38;100.00
13348;BME280;6743;49.934;9.138;2023-02-21T10:49:47;100868.25;;;9.43;100.00
13348;BME280;6743;49.934;9.138;2023-02-21T10:52:16;100836.34;;;9.35;100.00
13348;BME280;6743;49.934;9.138;2023-02-21T10:54:59;100864.44;;;9.55;100.00
13348;BME280;6743;49.934;9.138;2023-02-21T10:57:25;100867.53;;;9.60;100.00
13348;BME280;6743;49.934;9.138;2023-02-21T10:59:51;100870.72;;;9.64;100.00
13348;BME280;6743;49.934;9.138;2023-02-21T11:02:28;100866.66;;;9.69;100.00
13348;BME280;6743;49.934;9.138;2023-02-21T11:04:56;100856.47;;;9.74;100.00
13348;BME280;6743;49.934;9.138;2023-02-21T11:07:33;100857.84;;;9.78;100.00
13348;BME280;6743;49.934;9.138;2023-02-21T11:10:00;100849.31;;;9.84;100.00
13348;BME280;6743;49.934;9.138;2023-02-21T11:12:27;100856.97;;;9.87;100.00
13348;BME280;6743;49.934;9.138;2023-02-21T11:15:10;100841.59;;;9.91;100.00
13348;BME280;6743;49.934;9.138;2023-02-21T11:17:41;100843.97;;;9.94;100.00
13348;BME280;6743;49.934;9.138;2023-02-21T11:20:16;100839.06;;;9.99;100.00
13348;BME280;6743;49.934;9.138;2023-02-21T11:22:44;100840.28;;;10.05;100.00
13348;BME280;6743;49.934;9.138;2023-02-21T11:25:19;100837.03;;;10.11;100.00
13348;BME280;6743;49.934;9.138;2023-02-21T11:28:01;100832.16;;;10.16;100.00
13348;BME280;6743;49.934;9.138;2023-02-21T11:30:29;100823.31;;;10.25;100.00
13348;BME280;6743;49.934;9.138;2023-02-21T11:32:57;100821.47;;;10.35;100.00
13348;BME280;6743;49.934;9.138;2023-02-21T11:35:26;100818.06;;;10.43;100.00
13348;BME280;6743;49.934;9.138;2023-02-21T11:37:54;100817.13;;;10.52;100.00
13348;BME280;6743;49.934;9.138;2023-02-21T11:40:28;100816.53;;;10.58;100.00
13348;BME280;6743;49.934;9.138;2023-02-21T11:43:27;100820.66;;;10.70;100.00
13348;BME280;6743;49.934;9.138;2023-02-21T11:46:14;100804.62;;;10.80;100.00
13348;BME280;6743;49.934;9.138;2023-02-21T11:48:46;100791.28;;;10.89;100.00
13348;BME280;6743;49.934;9.138;2023-02-21T11:51:22;100798.00;;;11.01;100.00
13348;BME280;6743;49.934;9.138;2023-02-21T11:53:50;100787.25;;;11.03;100.00
13348;BME280;6743;49.934;9.138;2023-02-21T11:56:29;100786.94;;;11.06;100.00
13348;BME280;6743;49.934;9.138;2023-02-21T11:59:05;100779.34;;;11.11;100.00
13348;BME280;6743;49.934;9.138;2023-02-21T12:01:38;100772.87;;;11.14;100.00
13348;BME280;6743;49.934;9.138;2023-02-21T12:04:25;100768.25;;;11.16;100.00
13348;BME280;6743;49.934;9.138;2023-02-21T12:07:00;100767.47;;;11.23;100.00
13348;BME280;6743;49.934;9.138;2023-02-21T12:09:37;100766.00;;;11.29;100.00
13348;BME280;6743;49.934;9.138;2023-02-21T12:12:22;100758.41;;;11.34;100.00
13348;BME280;6743;49.934;9.138;2023-02-21T12:15:02;100758.63;;;11.49;100.00
13348;BME280;6743;49.934;9.138;2023-02-21T12:17:49;100749.53;;;11.51;100.00
13348;BME280;6743;49.934;9.138;2023-02-21T12:20:27;100744.41;;;11.58;100.00
13348;BME280;6743;49.934;9.138;2023-02-21T12:23:04;100738.59;;;11.62;100.00
13348;BME280;6743;49.934;9.138;2023-02-21T12:28:24;100718.34;;;11.61;100.00
13348;BME280;6743;49.934;9.138;2023-02-21T12:31:15;100724.22;;;11.73;100.00
13348;BME280;6743;49.934;9.138;2023-02-21T12:33:50;100724.28;;;11.81;100.00
13348;BME280;6743;49.934;9.138;2023-02-21T12:36:29;100723.28;;;11.90;100.00
13348;BME280;6743;49.934;9.138;2023-02-21T12:39:11;100718.34;;;11.95;100.00
13348;BME280;6743;49.934;9.138;2023-02-21T12:41:59;100709.38;;;12.04;100.00
13348;BME280;6743;49.934;9.138;2023-02-21T12:44:34;100701.91;;;12.08;100.00
13348;BME280;6743;49.934;9.138;2023-02-21T12:47:08;100693.44;;;12.12;100.00
13348;BME280;6743;49.934;9.138;2023-02-21T12:49:43;100687.28;;;12.12;100.00
13348;BME280;6743;49.934;9.138;2023-02-21T12:52:14;100687.78;;;12.15;100.00
13348;BME280;6743;49.934;9.138;2023-02-21T12:54:45;100680.63;;;12.24;100.00
13348;BME280;6743;49.934;9.138;2023-02-21T12:57:16;100680.16;;;12.29;100.00
13348;BME280;6743;49.934;9.138;2023-02-21T12:59:52;100675.50;;;12.31;100.00
13348;BME280;6743;49.934;9.138;2023-02-21T13:02:25;100667.50;;;12.39;100.00
13348;BME280;6743;49.934;9.138;2023-02-21T13:04:58;100647.03;;;12.39;100.00
13348;BME280;6743;49.934;9.138;2023-02-21T13:07:31;100657.03;;;12.53;100.00
13348;BME280;6743;49.934;9.138;2023-02-21T13:10:02;100656.53;;;12.58;100.00
13348;BME280;6743;49.934;9.138;2023-02-21T13:12:35;100655.19;;;12.62;100.00
13348;BME280;6743;49.934;9.138;2023-02-21T13:15:14;100655.66;;;12.66;100.00
13348;BME280;6743;49.934;9.138;2023-02-21T13:17:41;100643.72;;;12.70;100.00
13348;BME280;6743;49.934;9.138;2023-02-21T13:20:11;100639.38;;;12.77;100.00
13348;BME280;6743;49.934;9.138;2023-02-21T13:26:25;100634.34;;;12.82;100.00
13348;BME280;6743;49.934;9.138;2023-02-21T13:28:56;100629.87;;;12.82;100.00
13348;BME280;6743;49.934;9.138;2023-02-21T13:31:25;100622.72;;;12.83;100.00
13348;BME280;6743;49.934;9.138;2023-02-21T13:33:54;100617.19;;;12.92;100.00
13348;BME280;6743;49.934;9.138;2023-02-21T13:36:27;100624.94;;;13.10;100.00
13348;BME280;6743;49.934;9.138;2023-02-21T13:39:01;100616.66;;;13.13;100.00